CheckWX is a tool to help pilots better visualize weather data.  It is not intended as a substitute for an official pre-flight weather briefing.

17:52:57 UTC

ESNL METAR
Lycksele Airport
Sweden
Current

33 mins ago

ESNL 241720Z 28008KT 9999 NSC 01/M08 Q1000
Observed
Mar-24 @ 17:20 UTC
Wind
  • 280° at 8 KTS
Visibility
10,000+ meters
Flight Rules
VFR
Cloud Levels
  • Clear skies
Temperature
C / 34°F
Dewpoint
-8°C / 18°F
Humidity
51%
Altimeter
29.53" Hg
Pressure
999.92 hPa
Previous

1 hour ago

ESNL 241650Z AUTO 28009KT 9999 NCD 02/M08 Q1000
Observed
Mar-24 @ 16:50 UTC
Wind
  • 280° at 9 KTS
Visibility
10,000+ meters
Flight Rules
VFR
Cloud Levels
  • Clear skies
Temperature
C / 36°F
Dewpoint
-8°C / 18°F
Humidity
48%
Altimeter
29.53" Hg
Pressure
999.92 hPa
Previous

2 hours ago

ESNL 241620Z AUTO 29011KT 9999 NCD 02/M08 Q1000
Observed
Mar-24 @ 16:20 UTC
Wind
  • 290° at 11 KTS
Visibility
10,000+ meters
Flight Rules
VFR
Cloud Levels
  • Clear skies
Temperature
C / 36°F
Dewpoint
-8°C / 18°F
Humidity
48%
Altimeter
29.53" Hg
Pressure
999.92 hPa